Time;durP1;ratioP1;P1;durP2;ratioP2;P2;SDS_P1;SDS_P2;PMS_P1;PMS_P2;Temp;Humidity;BMP_temperature;BMP_pressure;BME280_temperature;BME280_humidity;BME280_pressure;Samples;Min_cycle;Max_cycle;Signal;HPM_P1;HPM_P2
2021/03/10 00:02:20;;;;;;;4.90;4.50;;;19.50;43.30;;;;;;5068311;28;20473;-70
2021/03/10 00:04:46;;;;;;;4.63;4.17;;;19.50;43.40;;;;;;5072015;28;20473;-71
2021/03/10 00:07:12;;;;;;;9.53;4.97;;;19.50;43.30;;;;;;5068650;28;20477;-72
2021/03/10 00:09:38;;;;;;;4.70;4.20;;;19.50;44.20;;;;;;5072132;28;20469;-71
2021/03/10 00:12:06;;;;;;;4.77;4.27;;;19.50;43.50;;;;;;5068564;28;20887;-71
2021/03/10 00:14:32;;;;;;;5.27;4.47;;;19.50;43.30;;;;;;5069600;28;20478;-71
2021/03/10 00:16:59;;;;;;;5.67;5.17;;;19.50;43.30;;;;;;5067784;28;20487;-71
2021/03/10 00:19:26;;;;;;;5.90;4.37;;;19.50;43.30;;;;;;5077131;28;20503;-71
2021/03/10 00:21:52;;;;;;;4.77;4.30;;;19.50;43.20;;;;;;5070928;28;20480;-72
2021/03/10 00:24:18;;;;;;;6.20;5.13;;;19.50;43.10;;;;;;5067318;28;20574;-72
2021/03/10 00:26:45;;;;;;;4.70;4.30;;;19.50;43.10;;;;;;5068005;28;20480;-71
2021/03/10 00:29:11;;;;;;;6.20;5.03;;;19.50;43.10;;;;;;5068146;28;20492;-71
2021/03/10 00:31:37;;;;;;;5.00;4.60;;;19.40;43.00;;;;;;5069532;28;20492;-70
2021/03/10 00:34:03;;;;;;;4.80;4.37;;;19.50;43.10;;;;;;5092138;27;20469;-71
2021/03/10 00:36:30;;;;;;;5.83;4.93;;;19.40;43.10;;;;;;5070129;28;20491;-70
2021/03/10 00:38:56;;;;;;;4.60;4.20;;;19.40;43.10;;;;;;5070942;28;20488;-71
2021/03/10 00:41:22;;;;;;;4.90;4.50;;;19.40;43.00;;;;;;5073595;28;20484;-71
2021/03/10 00:43:49;;;;;;;6.07;4.80;;;19.40;43.00;;;;;;5064967;28;20476;-71
2021/03/10 00:46:15;;;;;;;5.77;4.57;;;19.40;43.10;;;;;;5070601;28;20499;-70
2021/03/10 00:48:41;;;;;;;5.23;4.73;;;19.40;43.10;;;;;;5072772;28;20485;-69
2021/03/10 00:51:07;;;;;;;5.77;5.20;;;19.40;43.00;;;;;;5072454;28;20484;-71
2021/03/10 00:53:34;;;;;;;5.20;4.77;;;19.40;43.30;;;;;;5070121;28;20539;-71
2021/03/10 00:56:00;;;;;;;5.10;4.40;;;19.40;43.30;;;;;;5073434;28;20485;-72
2021/03/10 00:58:27;;;;;;;5.17;4.67;;;19.40;43.20;;;;;;5068446;28;20477;-71
2021/03/10 01:00:53;;;;;;;5.43;4.77;;;19.50;43.50;;;;;;5093438;27;20482;-70
2021/03/10 01:03:19;;;;;;;4.10;3.80;;;19.40;43.30;;;;;;5072227;28;20507;-70
2021/03/10 01:05:45;;;;;;;5.60;5.13;;;19.50;43.10;;;;;;5071627;28;20487;-71
2021/03/10 01:08:11;;;;;;;5.43;4.93;;;19.50;43.10;;;;;;5069981;28;20872;-69
2021/03/10 01:10:40;;;;;;;4.93;4.50;;;19.40;43.00;;;;;;5072057;28;20572;-70
2021/03/10 01:13:06;;;;;;;4.60;4.20;;;19.50;43.10;;;;;;5074839;28;20512;-70
2021/03/10 01:15:32;;;;;;;5.90;5.10;;;19.40;42.90;;;;;;5071738;27;20486;-69
2021/03/10 01:17:58;;;;;;;7.47;5.43;;;19.40;43.00;;;;;;5068781;27;20485;-70
2021/03/10 01:20:24;;;;;;;5.03;4.57;;;19.40;43.00;;;;;;5072784;28;20492;-70
2021/03/10 01:22:50;;;;;;;5.00;4.60;;;19.40;43.00;;;;;;5072107;28;20489;-71
2021/03/10 01:25:17;;;;;;;4.93;4.53;;;19.40;43.00;;;;;;5073008;28;20485;-69
2021/03/10 01:27:44;;;;;;;4.87;4.43;;;19.40;42.90;;;;;;5068862;28;20518;-71
2021/03/10 01:30:12;;;;;;;4.43;4.03;;;19.40;43.10;;;;;;5072339;28;20485;-70
2021/03/10 01:32:38;;;;;;;5.50;4.97;;;19.40;43.20;;;;;;5069390;28;20477;-71
2021/03/10 01:35:05;;;;;;;9.13;5.13;;;19.40;43.00;;;;;;5072800;28;21007;-70
2021/03/10 01:37:32;;;;;;;5.80;5.27;;;19.40;43.10;;;;;;5076078;27;20498;-70
2021/03/10 01:39:58;;;;;;;4.47;4.17;;;19.50;43.10;;;;;;5090362;27;20627;-71
2021/03/10 01:42:24;;;;;;;5.07;4.63;;;19.50;43.30;;;;;;5075217;27;20551;-70
2021/03/10 01:44:51;;;;;;;6.77;4.37;;;19.40;43.00;;;;;;5092014;27;20495;-70
2021/03/10 01:47:18;;;;;;;5.03;4.70;;;19.40;42.90;;;;;;5084127;27;20484;-70
2021/03/10 01:49:44;;;;;;;5.20;4.80;;;19.40;42.80;;;;;;5079425;27;20488;-70
2021/03/10 01:52:10;;;;;;;4.90;4.40;;;19.50;43.20;;;;;;5069950;28;20489;-69
2021/03/10 01:54:37;;;;;;;5.37;4.70;;;19.50;43.20;;;;;;5069237;28;20522;-70
2021/03/10 01:57:03;;;;;;;4.80;4.40;;;19.50;43.10;;;;;;5073339;28;20477;-70
2021/03/10 01:59:30;;;;;;;4.70;4.30;;;19.50;42.90;;;;;;5068846;28;20503;-70
2021/03/10 02:01:57;;;;;;;5.40;4.40;;;19.50;42.80;;;;;;5071190;27;20526;-70
2021/03/10 02:04:23;;;;;;;4.90;4.60;;;19.50;43.00;;;;;;5083251;27;20484;-70
2021/03/10 02:06:54;;;;;;;6.80;5.07;;;19.50;43.10;;;;;;5071882;28;20703;-69
2021/03/10 02:09:25;;;;;;;8.10;4.70;;;19.50;42.90;;;;;;5069550;27;20568;-69
2021/03/10 02:11:53;;;;;;;4.90;4.40;;;19.50;42.90;;;;;;5092239;27;20507;-71
2021/03/10 02:14:23;;;;;;;5.13;4.50;;;19.50;42.90;;;;;;5070640;28;20484;-69
2021/03/10 02:16:51;;;;;;;6.70;5.50;;;19.40;42.80;;;;;;5071231;28;20535;-69
2021/03/10 02:20:00;;;;;;;6.70;5.17;;;19.50;42.80;;;;;;5070603;28;20947;-69
2021/03/10 02:22:34;;;;;;;7.83;4.93;;;19.40;42.70;;;;;;5070773;28;20480;-69
2021/03/10 02:25:03;;;;;;;5.13;4.63;;;19.40;42.70;;;;;;5072383;28;20661;-71
2021/03/10 02:27:44;;;;;;;5.67;4.67;;;19.40;42.90;;;;;;5071433;28;20489;-72
2021/03/10 02:30:11;;;;;;;6.20;5.60;;;19.40;42.90;;;;;;5062036;28;20489;-70
2021/03/10 02:32:38;;;;;;;5.00;4.60;;;19.40;43.00;;;;;;5070939;28;20480;-70
2021/03/10 02:35:06;;;;;;;5.60;5.10;;;19.40;43.00;;;;;;5070295;28;20482;-70
2021/03/10 02:37:32;;;;;;;7.57;4.93;;;19.40;42.90;;;;;;5067805;28;20489;-69
2021/03/10 02:39:58;;;;;;;6.40;5.03;;;19.50;43.10;;;;;;5079991;28;20469;-69
2021/03/10 02:42:24;;;;;;;5.90;5.40;;;19.40;43.00;;;;;;5073909;28;20480;-70
2021/03/10 02:44:52;;;;;;;5.90;5.10;;;19.40;42.70;;;;;;5071387;28;20484;-69
2021/03/10 02:47:18;;;;;;;5.67;5.20;;;19.40;42.80;;;;;;5069865;28;20481;-70
2021/03/10 02:49:44;;;;;;;5.33;4.57;;;19.40;42.70;;;;;;5069610;28;20553;-69
2021/03/10 02:52:11;;;;;;;7.90;4.63;;;19.40;42.70;;;;;;5073598;28;20488;-70
2021/03/10 02:54:37;;;;;;;6.50;5.03;;;19.40;42.60;;;;;;5071605;28;20480;-70
2021/03/10 02:57:04;;;;;;;5.50;5.00;;;19.40;42.60;;;;;;5071543;28;20482;-70
2021/03/10 02:59:30;;;;;;;5.30;4.80;;;19.40;42.70;;;;;;5068985;28;20500;-72
2021/03/10 03:01:57;;;;;;;6.70;5.57;;;19.40;42.60;;;;;;5066449;28;20509;-70
2021/03/10 03:04:23;;;;;;;5.20;4.80;;;19.40;42.60;;;;;;5077675;27;21061;-70
2021/03/10 03:06:49;;;;;;;7.70;5.10;;;19.40;42.60;;;;;;5088170;27;21610;-70
2021/03/10 03:09:15;;;;;;;5.93;5.40;;;19.40;42.60;;;;;;5073054;28;20499;-70
2021/03/10 03:11:42;;;;;;;5.80;5.27;;;19.40;42.60;;;;;;5072635;28;20481;-69
2021/03/10 03:14:08;;;;;;;9.87;4.90;;;19.30;42.50;;;;;;5063265;27;20499;-70
2021/03/10 03:16:34;;;;;;;5.07;4.67;;;19.40;42.70;;;;;;5091109;27;20475;-70
2021/03/10 03:19:03;;;;;;;6.17;5.43;;;19.40;42.80;;;;;;5079414;28;20492;-71
2021/03/10 03:21:29;;;;;;;8.10;5.73;;;19.40;42.70;;;;;;5071917;28;20488;-70
2021/03/10 03:23:55;;;;;;;4.90;4.50;;;19.40;42.70;;;;;;5070706;28;20517;-70
2021/03/10 03:26:21;;;;;;;7.83;5.80;;;19.40;42.60;;;;;;5070597;28;20534;-70
2021/03/10 03:28:47;;;;;;;5.60;5.10;;;19.40;42.60;;;;;;5070620;28;20488;-69
2021/03/10 03:31:14;;;;;;;5.30;4.80;;;19.40;42.60;;;;;;5070418;28;20506;-70
2021/03/10 03:33:41;;;;;;;5.20;4.37;;;19.40;42.50;;;;;;5058676;28;20523;-69
2021/03/10 03:36:08;;;;;;;6.00;5.50;;;19.40;42.40;;;;;;5067629;28;20476;-68
2021/03/10 03:38:34;;;;;;;5.50;5.07;;;19.40;42.70;;;;;;5072851;28;20477;-71
2021/03/10 03:41:01;;;;;;;6.30;4.87;;;19.30;42.40;;;;;;5068798;28;20547;-70
2021/03/10 03:43:27;;;;;;;5.07;4.60;;;19.40;42.50;;;;;;5071093;28;20481;-70
2021/03/10 03:45:54;;;;;;;6.13;4.77;;;19.40;42.50;;;;;;5068728;28;20484;-69
2021/03/10 03:48:20;;;;;;;6.53;5.40;;;19.40;42.30;;;;;;5069288;28;20495;-69
2021/03/10 03:50:46;;;;;;;7.60;6.13;;;19.40;42.40;;;;;;5066534;28;20489;-70
2021/03/10 03:53:13;;;;;;;6.53;5.37;;;19.40;42.40;;;;;;5066209;28;20477;-69
2021/03/10 03:55:39;;;;;;;4.90;4.20;;;19.40;42.40;;;;;;5071078;28;20494;-71
2021/03/10 03:58:06;;;;;;;5.73;5.27;;;19.40;42.30;;;;;;5069310;28;20489;-69
2021/03/10 04:00:32;;;;;;;6.27;5.70;;;19.40;42.30;;;;;;5067961;28;20497;-69
2021/03/10 04:02:58;;;;;;;7.70;5.10;;;19.40;42.10;;;;;;5067375;28;20934;-69
2021/03/10 04:05:25;;;;;;;6.07;4.60;;;19.40;42.20;;;;;;5087892;28;20471;-71
2021/03/10 04:07:51;;;;;;;5.50;5.10;;;19.40;42.10;;;;;;5070756;28;20512;-71
2021/03/10 04:10:19;;;;;;;7.10;6.40;;;19.40;42.30;;;;;;5075062;28;20484;-70
2021/03/10 04:12:45;;;;;;;7.43;6.70;;;19.40;43.10;;;;;;5081215;28;20479;-70
2021/03/10 04:15:12;;;;;;;7.17;6.20;;;19.30;42.30;;;;;;5077648;28;21082;-70
2021/03/10 04:17:39;;;;;;;7.50;6.27;;;19.30;42.40;;;;;;5068664;28;20488;-69
2021/03/10 04:20:10;;;;;;;6.33;5.63;;;19.40;42.40;;;;;;5080503;27;20521;-70
2021/03/10 04:22:36;;;;;;;7.93;6.00;;;19.40;42.30;;;;;;5093513;27;20511;-70
2021/03/10 04:25:04;;;;;;;8.90;6.33;;;19.40;42.10;;;;;;5086167;28;20476;-70
2021/03/10 04:27:31;;;;;;;7.33;6.40;;;19.40;42.10;;;;;;5076673;28;20488;-70
2021/03/10 04:29:58;;;;;;;12.90;5.57;;;19.50;42.00;;;;;;5074471;28;20498;-70
2021/03/10 04:32:24;;;;;;;6.23;5.70;;;19.50;42.00;;;;;;5074115;28;20526;-70
2021/03/10 04:34:50;;;;;;;9.63;5.93;;;19.50;41.90;;;;;;5072644;28;21028;-70
2021/03/10 04:37:16;;;;;;;6.20;5.47;;;19.50;41.90;;;;;;5063449;28;20469;-70
2021/03/10 04:39:42;;;;;;;9.80;5.60;;;19.50;41.90;;;;;;5089549;28;20472;-70
2021/03/10 04:42:09;;;;;;;11.83;7.07;;;19.50;41.90;;;;;;5075030;28;20476;-70
2021/03/10 04:44:36;;;;;;;7.10;6.50;;;19.50;41.70;;;;;;5075513;28;20477;-71
2021/03/10 04:47:03;;;;;;;6.07;5.43;;;19.50;41.70;;;;;;5071192;28;20503;-70
2021/03/10 04:49:29;;;;;;;6.43;5.83;;;19.50;41.60;;;;;;5074554;28;20489;-70
2021/03/10 04:51:55;;;;;;;8.53;6.37;;;19.50;41.70;;;;;;5074601;28;20612;-70
2021/03/10 04:54:22;;;;;;;8.77;5.90;;;19.50;41.60;;;;;;5071331;28;20492;-70
2021/03/10 04:56:48;;;;;;;5.20;4.90;;;19.50;42.40;;;;;;5072704;28;21002;-69
2021/03/10 04:59:14;;;;;;;6.33;5.73;;;19.40;41.70;;;;;;5073782;28;20492;-70
2021/03/10 05:01:41;;;;;;;9.37;5.77;;;19.40;41.60;;;;;;5051342;28;20484;-70
2021/03/10 05:04:07;;;;;;;5.77;5.17;;;19.40;41.70;;;;;;5078546;28;21325;-71
2021/03/10 05:06:34;;;;;;;5.83;5.10;;;19.40;41.60;;;;;;5072305;28;20477;-71
2021/03/10 05:09:00;;;;;;;8.23;5.63;;;19.40;41.50;;;;;;5073480;28;20489;-69
2021/03/10 05:11:26;;;;;;;6.60;5.60;;;19.40;41.50;;;;;;5072270;28;21544;-70
2021/03/10 05:13:52;;;;;;;6.60;6.03;;;19.30;41.50;;;;;;5074885;28;20876;-69
2021/03/10 05:16:18;;;;;;;6.00;5.43;;;19.30;41.50;;;;;;5071529;27;20616;-69
2021/03/10 05:18:45;;;;;;;5.73;4.90;;;19.30;41.50;;;;;;5095675;27;20991;-71
2021/03/10 05:21:12;;;;;;;6.73;6.10;;;19.30;41.60;;;;;;5076221;28;20481;-70
2021/03/10 05:23:41;;;;;;;6.43;5.83;;;19.30;41.80;;;;;;5070143;28;21000;-70
2021/03/10 05:26:07;;;;;;;5.73;5.13;;;19.30;41.90;;;;;;5068078;28;20893;-69
2021/03/10 05:28:33;;;;;;;6.53;5.80;;;19.30;41.90;;;;;;5078261;28;20542;-69
2021/03/10 05:31:00;;;;;;;6.33;5.63;;;19.30;41.90;;;;;;5072117;28;20496;-69
2021/03/10 05:33:26;;;;;;;6.33;5.80;;;19.30;41.90;;;;;;5073923;28;20476;-70
2021/03/10 05:35:53;;;;;;;5.30;4.90;;;19.20;41.80;;;;;;5072612;28;20859;-69
2021/03/10 05:38:19;;;;;;;6.00;5.50;;;19.30;41.80;;;;;;5074104;28;20492;-69
2021/03/10 05:40:45;;;;;;;5.77;5.13;;;19.30;41.40;;;;;;5069989;28;20495;-69
2021/03/10 05:43:11;;;;;;;4.93;4.43;;;19.30;41.30;;;;;;5071534;28;20474;-70
2021/03/10 05:45:37;;;;;;;5.10;4.70;;;19.30;41.80;;;;;;5074185;28;20477;-69
2021/03/10 05:48:06;;;;;;;5.40;4.90;;;19.40;41.10;;;;;;5074678;28;20476;-69
2021/03/10 05:50:32;;;;;;;6.70;5.77;;;19.40;41.00;;;;;;5074444;28;20530;-70
2021/03/10 05:52:59;;;;;;;7.57;5.63;;;19.40;40.90;;;;;;5073052;28;20489;-69
2021/03/10 05:55:25;;;;;;;5.57;5.10;;;19.50;40.80;;;;;;5073833;28;20485;-69
2021/03/10 05:57:52;;;;;;;6.30;5.13;;;19.40;40.60;;;;;;5070698;28;20488;-69
2021/03/10 06:00:19;;;;;;;5.33;4.83;;;19.40;41.40;;;;;;5071351;28;20503;-70
2021/03/10 06:02:45;;;;;;;4.80;4.40;;;19.30;40.50;;;;;;5069338;28;20473;-69
2021/03/10 06:05:18;;;;;;;5.10;4.60;;;19.30;41.00;;;;;;5081026;28;21545;-69
2021/03/10 06:07:44;;;;;;;5.50;4.93;;;19.30;41.10;;;;;;5066255;28;20472;-69
2021/03/10 06:10:13;;;;;;;5.13;4.63;;;19.30;40.90;;;;;;5069353;28;20477;-71
2021/03/10 06:12:40;;;;;;;4.90;4.60;;;19.30;40.90;;;;;;5069479;28;20579;-70
2021/03/10 06:15:07;;;;;;;6.57;5.30;;;19.30;41.70;;;;;;5067532;28;20473;-70
2021/03/10 06:17:43;;;;;;;5.40;5.00;;;19.30;40.80;;;;;;5069902;28;21024;-70
2021/03/10 06:20:11;;;;;;;5.20;4.77;;;19.30;40.60;;;;;;5071324;28;20481;-70
2021/03/10 06:22:37;;;;;;;4.47;4.10;;;19.30;40.30;;;;;;5073856;28;20484;-70
2021/03/10 06:25:04;;;;;;;5.30;4.80;;;19.40;40.90;;;;;;5068326;28;20496;-71
2021/03/10 06:27:31;;;;;;;5.47;4.93;;;19.40;40.80;;;;;;5067974;28;20482;-69
2021/03/10 06:29:58;;;;;;;4.97;4.57;;;19.40;40.60;;;;;;5070513;28;20480;-68
2021/03/10 06:32:24;;;;;;;5.30;4.90;;;19.50;40.40;;;;;;5071085;28;20490;-70
2021/03/10 06:34:52;;;;;;;5.60;5.00;;;19.40;39.90;;;;;;5069555;28;20484;-70
2021/03/10 06:37:25;;;;;;;5.27;4.63;;;19.40;40.00;;;;;;5068167;28;21168;-71
2021/03/10 06:39:52;;;;;;;6.03;5.23;;;19.30;40.00;;;;;;5068466;28;20544;-70
2021/03/10 06:42:19;;;;;;;6.77;4.90;;;19.30;40.00;;;;;;5068729;28;20480;-70
2021/03/10 06:44:50;;;;;;;6.57;5.97;;;19.30;40.00;;;;;;5076579;27;20492;-71
2021/03/10 06:47:16;;;;;;;7.47;5.80;;;19.20;39.90;;;;;;5083879;27;20596;-70
2021/03/10 06:49:49;;;;;;;6.40;5.33;;;19.20;40.20;;;;;;5066544;28;20488;-70
2021/03/10 06:52:15;;;;;;;5.17;4.87;;;19.30;41.20;;;;;;5062993;28;20504;-71
2021/03/10 06:54:44;;;;;;;5.93;4.83;;;19.30;40.30;;;;;;5065174;28;20818;-71
2021/03/10 06:57:12;;;;;;;4.83;4.33;;;19.30;40.30;;;;;;5072254;28;20472;-71
2021/03/10 06:59:40;;;;;;;5.87;4.80;;;19.40;40.30;;;;;;5069106;28;20464;-70
2021/03/10 07:02:08;;;;;;;4.63;4.23;;;19.40;40.30;;;;;;5068959;28;20492;-70
2021/03/10 07:04:34;;;;;;;5.60;5.10;;;19.50;40.40;;;;;;5075763;28;20516;-70
2021/03/10 07:07:00;;;;;;;5.43;4.93;;;19.50;40.10;;;;;;5074117;28;20485;-70
2021/03/10 07:09:26;;;;;;;7.03;5.80;;;19.50;39.80;;;;;;5072305;28;20492;-70
2021/03/10 07:11:52;;;;;;;8.07;5.87;;;19.40;39.10;;;;;;5070407;28;20477;-70
2021/03/10 07:14:19;;;;;;;5.90;5.37;;;19.40;38.90;;;;;;5069893;28;20493;-70
2021/03/10 07:16:45;;;;;;;9.00;6.17;;;19.40;38.50;;;;;;5069301;28;20857;-71
2021/03/10 07:19:12;;;;;;;9.37;7.30;;;19.40;38.80;;;;;;5071894;28;20473;-68
2021/03/10 07:21:40;;;;;;;8.97;6.10;;;19.30;38.50;;;;;;5072066;28;21416;-68
2021/03/10 07:24:07;;;;;;;6.93;6.20;;;19.30;38.10;;;;;;5069153;28;20481;-69
2021/03/10 07:26:39;;;;;;;8.30;6.93;;;19.30;38.40;;;;;;5071687;28;21050;-68
2021/03/10 07:29:05;;;;;;;6.83;6.23;;;19.20;38.50;;;;;;5071574;28;21317;-69
2021/03/10 07:31:31;;;;;;;6.93;6.23;;;19.30;38.90;;;;;;5072170;28;21098;-69
2021/03/10 07:33:57;;;;;;;6.30;5.57;;;19.30;38.70;;;;;;5072401;28;20536;-70
2021/03/10 07:36:35;;;;;;;5.27;4.87;;;19.30;38.80;;;;;;5069951;28;20492;-68
2021/03/10 07:39:01;;;;;;;6.00;4.93;;;19.30;39.00;;;;;;5067848;28;20524;-69
2021/03/10 07:41:37;;;;;;;5.43;4.97;;;19.30;39.30;;;;;;5071982;28;20992;-70
2021/03/10 07:44:15;;;;;;;5.63;5.03;;;19.30;39.50;;;;;;5067930;28;20485;-71
2021/03/10 07:46:41;;;;;;;5.93;5.13;;;19.30;39.40;;;;;;5069198;28;20496;-70
2021/03/10 07:49:18;;;;;;;4.90;4.50;;;19.30;39.40;;;;;;5070742;28;20909;-69
2021/03/10 07:51:46;;;;;;;4.43;4.10;;;19.40;39.40;;;;;;5059076;28;20473;-72
2021/03/10 07:54:17;;;;;;;5.43;4.93;;;19.50;39.30;;;;;;5056255;28;20478;-70
2021/03/10 07:56:43;;;;;;;5.07;4.43;;;19.50;39.40;;;;;;5061262;28;20469;-71
2021/03/10 07:59:09;;;;;;;4.73;4.27;;;19.60;39.20;;;;;;5065462;28;20496;-70
2021/03/10 08:01:35;;;;;;;5.23;4.83;;;19.60;39.40;;;;;;5085781;27;20485;-70
2021/03/10 08:04:09;;;;;;;5.23;4.07;;;19.50;39.30;;;;;;5076185;28;21011;-70
2021/03/10 08:06:47;;;;;;;4.80;4.33;;;19.50;39.60;;;;;;5095786;27;20493;-71
2021/03/10 08:09:14;;;;;;;4.63;4.23;;;19.50;39.70;;;;;;5058724;28;20469;-70
2021/03/10 08:11:43;;;;;;;4.30;3.90;;;19.40;39.60;;;;;;5071830;28;20996;-71
2021/03/10 08:14:10;;;;;;;4.20;3.87;;;19.40;39.80;;;;;;5070355;28;21564;-70
2021/03/10 08:16:43;;;;;;;5.23;4.20;;;19.40;40.20;;;;;;5069427;28;20481;-69
2021/03/10 08:19:10;;;;;;;5.50;4.93;;;19.40;40.20;;;;;;5073490;28;20481;-69
2021/03/10 08:21:43;;;;;;;4.77;4.33;;;19.40;40.30;;;;;;5071458;28;22093;-70
2021/03/10 08:24:10;;;;;;;8.27;4.23;;;19.40;41.20;;;;;;5070847;28;20477;-69
2021/03/10 08:26:36;;;;;;;3.97;3.67;;;19.40;40.40;;;;;;5071173;28;20575;-70
2021/03/10 08:29:03;;;;;;;4.33;4.03;;;19.40;40.40;;;;;;5070334;28;20488;-69
2021/03/10 08:31:30;;;;;;;4.23;3.60;;;19.40;40.30;;;;;;5068520;28;20577;-69
2021/03/10 08:33:56;;;;;;;4.17;3.80;;;19.40;40.40;;;;;;5070252;28;20481;-69
2021/03/10 08:36:30;;;;;;;4.90;4.50;;;19.50;40.60;;;;;;5072052;28;20473;-68
2021/03/10 08:38:57;;;;;;;4.60;4.20;;;19.40;40.50;;;;;;5074838;27;20528;-69
2021/03/10 08:41:24;;;;;;;4.20;3.90;;;19.40;40.40;;;;;;5079762;28;20547;-70
2021/03/10 08:44:00;;;;;;;4.10;3.70;;;19.50;40.60;;;;;;5069379;28;20481;-69
2021/03/10 08:46:37;;;;;;;4.83;4.50;;;19.50;40.50;;;;;;5067911;28;20480;-69
2021/03/10 08:49:03;;;;;;;9.60;3.73;;;19.50;40.50;;;;;;5070163;28;20587;-69
2021/03/10 08:51:29;;;;;;;4.17;3.70;;;19.50;40.60;;;;;;5069621;28;20546;-69
2021/03/10 08:54:04;;;;;;;5.07;4.57;;;19.50;40.30;;;;;;5067742;28;20488;-71
2021/03/10 08:56:32;;;;;;;4.23;3.83;;;19.50;40.50;;;;;;5069098;28;20491;-69
2021/03/10 08:58:58;;;;;;;4.53;4.10;;;19.50;40.60;;;;;;5071150;28;20488;-71
2021/03/10 09:01:24;;;;;;;4.40;4.00;;;19.50;40.70;;;;;;5069891;28;20546;-68
2021/03/10 09:03:50;;;;;;;3.60;3.40;;;19.50;40.60;;;;;;5096430;27;20482;-69
2021/03/10 09:06:17;;;;;;;4.20;3.80;;;19.50;40.60;;;;;;5075171;28;20485;-69
2021/03/10 09:08:43;;;;;;;4.93;4.43;;;19.50;40.60;;;;;;5072627;28;20485;-69
2021/03/10 09:11:09;;;;;;;7.27;4.43;;;19.60;40.50;;;;;;5074077;28;20827;-69
2021/03/10 09:13:36;;;;;;;3.77;3.50;;;19.70;40.40;;;;;;5073217;28;21010;-70
2021/03/10 09:16:09;;;;;;;4.57;4.17;;;19.80;40.20;;;;;;5072373;28;20493;-69
2021/03/10 09:18:35;;;;;;;4.83;4.30;;;19.90;40.10;;;;;;5075524;28;20481;-69
2021/03/10 09:21:02;;;;;;;4.33;3.90;;;19.90;40.00;;;;;;5071922;28;20481;-68
2021/03/10 09:23:28;;;;;;;4.77;4.37;;;19.80;40.00;;;;;;5070967;28;20492;-69
2021/03/10 09:25:55;;;;;;;3.83;3.50;;;19.80;40.10;;;;;;5071361;28;20492;-69
2021/03/10 09:28:21;;;;;;;4.27;3.87;;;19.80;40.30;;;;;;5075126;28;21067;-68
2021/03/10 09:30:49;;;;;;;4.27;3.97;;;19.80;40.30;;;;;;5076512;28;20522;-69
2021/03/10 09:33:19;;;;;;;8.50;4.20;;;19.80;40.40;;;;;;5073966;28;20530;-69
2021/03/10 09:35:51;;;;;;;6.23;4.80;;;19.70;40.40;;;;;;5071191;28;20848;-70
2021/03/10 09:38:17;;;;;;;4.27;4.03;;;19.70;40.40;;;;;;5062494;28;20830;-69
2021/03/10 09:40:44;;;;;;;5.37;4.70;;;19.70;40.50;;;;;;5073712;28;20521;-69
2021/03/10 09:43:11;;;;;;;5.07;4.67;;;19.70;40.40;;;;;;5073724;28;20482;-69
2021/03/10 09:45:38;;;;;;;5.10;3.97;;;19.70;40.40;;;;;;5083815;27;20507;-69
2021/03/10 09:48:06;;;;;;;4.23;3.83;;;19.70;40.30;;;;;;5082255;27;20492;-68
2021/03/10 09:50:34;;;;;;;5.23;4.73;;;19.80;40.50;;;;;;5071867;28;20484;-68
2021/03/10 09:53:10;;;;;;;4.77;4.37;;;19.80;40.30;;;;;;5078059;27;20468;-69
2021/03/10 09:55:36;;;;;;;4.47;4.07;;;19.80;40.40;;;;;;5072318;28;21019;-68
2021/03/10 09:58:03;;;;;;;4.23;3.97;;;19.80;40.50;;;;;;5072171;28;20489;-68
2021/03/10 10:00:29;;;;;;;4.87;4.10;;;19.70;40.40;;;;;;5070986;28;20494;-69
2021/03/10 10:02:56;;;;;;;3.70;3.40;;;19.70;40.40;;;;;;5073443;28;20484;-69
2021/03/10 10:05:24;;;;;;;4.83;4.40;;;19.70;40.40;;;;;;5075124;27;20480;-67
2021/03/10 10:07:50;;;;;;;4.70;4.40;;;19.70;40.50;;;;;;5068770;28;20998;-68
2021/03/10 10:10:17;;;;;;;5.33;4.50;;;19.70;40.50;;;;;;5072221;28;20487;-69
2021/03/10 10:12:44;;;;;;;4.40;4.00;;;19.70;40.50;;;;;;5077588;27;20479;-69
2021/03/10 10:15:11;;;;;;;4.77;4.20;;;19.70;40.60;;;;;;5090294;27;20477;-70
2021/03/10 10:17:37;;;;;;;4.57;4.07;;;19.70;40.60;;;;;;5072291;28;20485;-70
2021/03/10 10:20:05;;;;;;;4.80;4.20;;;19.70;40.60;;;;;;5074337;28;20575;-70
2021/03/10 10:22:32;;;;;;;4.00;3.70;;;19.60;40.70;;;;;;5072282;28;21298;-69
2021/03/10 10:24:58;;;;;;;4.40;4.00;;;19.60;40.80;;;;;;5069460;28;20504;-68
2021/03/10 10:27:24;;;;;;;4.97;4.13;;;19.60;40.90;;;;;;5087322;27;22665;-69
2021/03/10 10:29:50;;;;;;;5.53;4.07;;;19.60;41.00;;;;;;5077141;27;20489;-69
2021/03/10 10:32:17;;;;;;;6.57;4.17;;;19.60;41.10;;;;;;5071864;28;20484;-70
2021/03/10 10:34:43;;;;;;;4.50;4.10;;;19.60;41.00;;;;;;5073622;28;20488;-70
2021/03/10 10:37:09;;;;;;;4.37;4.03;;;19.70;40.80;;;;;;5074750;28;21204;-70
2021/03/10 10:39:36;;;;;;;3.73;3.53;;;19.80;40.70;;;;;;5071828;28;20477;-70
2021/03/10 10:42:02;;;;;;;5.33;4.83;;;19.80;40.60;;;;;;5069762;28;20480;-69
2021/03/10 10:44:29;;;;;;;4.57;4.17;;;19.80;40.50;;;;;;5069416;28;21369;-69
2021/03/10 10:46:55;;;;;;;4.40;4.03;;;19.80;40.60;;;;;;5069432;28;20535;-69
2021/03/10 10:49:21;;;;;;;3.90;3.57;;;19.80;40.60;;;;;;5062815;28;20484;-68
2021/03/10 10:51:47;;;;;;;4.60;4.20;;;19.70;40.70;;;;;;5084109;27;20565;-69
2021/03/10 10:54:13;;;;;;;3.93;3.43;;;19.70;40.70;;;;;;5073465;28;21204;-68
2021/03/10 10:56:40;;;;;;;4.47;4.17;;;19.70;40.90;;;;;;5072604;27;20507;-68
2021/03/10 10:59:06;;;;;;;3.70;3.40;;;19.70;40.90;;;;;;5073377;27;20697;-68
2021/03/10 11:01:33;;;;;;;4.57;4.10;;;19.60;40.90;;;;;;5069667;28;20546;-68
2021/03/10 11:03:59;;;;;;;3.83;3.53;;;19.60;40.90;;;;;;5069649;28;20480;-68
2021/03/10 11:06:25;;;;;;;3.80;3.50;;;19.60;40.80;;;;;;5071168;28;20488;-68
2021/03/10 11:08:51;;;;;;;4.13;3.83;;;19.60;40.90;;;;;;5071849;28;21567;-69
2021/03/10 11:11:17;;;;;;;4.53;4.13;;;19.60;40.60;;;;;;5066096;28;20484;-69
2021/03/10 11:13:44;;;;;;;3.77;3.57;;;19.70;40.60;;;;;;5087048;27;20477;-67
2021/03/10 11:16:11;;;;;;;5.30;4.90;;;19.70;40.40;;;;;;5071429;28;20574;-67
2021/03/10 11:18:37;;;;;;;4.90;4.43;;;19.80;40.50;;;;;;5073173;28;20497;-68
2021/03/10 11:21:04;;;;;;;6.97;4.27;;;19.80;40.50;;;;;;5071594;28;21099;-68
2021/03/10 11:23:30;;;;;;;5.03;4.60;;;19.80;40.50;;;;;;5070966;28;20580;-68
2021/03/10 11:25:58;;;;;;;6.10;5.50;;;19.80;40.50;;;;;;5099186;27;20475;-68
2021/03/10 11:28:25;;;;;;;7.47;5.70;;;19.70;40.50;;;;;;5071249;28;20593;-68
2021/03/10 11:30:52;;;;;;;6.07;5.17;;;19.80;40.50;;;;;;5072940;28;20576;-68
2021/03/10 11:33:18;;;;;;;6.73;5.80;;;19.70;40.40;;;;;;5075411;28;20478;-68
2021/03/10 11:35:44;;;;;;;6.83;6.13;;;19.70;40.50;;;;;;5070835;28;20506;-68
2021/03/10 11:38:10;;;;;;;5.40;4.80;;;19.70;40.60;;;;;;5083023;27;20475;-68
2021/03/10 11:40:37;;;;;;;5.60;5.17;;;19.70;40.60;;;;;;5080530;27;20928;-68
2021/03/10 11:43:03;;;;;;;5.20;4.40;;;19.70;40.70;;;;;;5069118;28;20560;-68
2021/03/10 11:45:29;;;;;;;5.73;5.23;;;19.70;40.70;;;;;;5075881;27;20488;-68
2021/03/10 11:47:56;;;;;;;6.10;4.17;;;19.70;40.60;;;;;;5071310;28;20554;-68
2021/03/10 11:50:23;;;;;;;4.00;3.70;;;19.70;40.60;;;;;;5068256;28;20481;-68
2021/03/10 11:52:49;;;;;;;4.20;3.87;;;19.70;40.60;;;;;;5069589;28;20476;-68
2021/03/10 11:55:15;;;;;;;5.27;4.33;;;19.60;40.50;;;;;;5069786;28;20546;-68
2021/03/10 11:57:42;;;;;;;3.73;3.53;;;19.60;40.50;;;;;;5069560;28;20489;-68
2021/03/10 12:00:09;;;;;;;3.70;3.50;;;19.70;40.50;;;;;;5082502;27;20479;-68
2021/03/10 12:02:35;;;;;;;3.40;3.20;;;19.60;40.50;;;;;;5079975;27;20481;-68
2021/03/10 12:05:02;;;;;;;5.17;4.67;;;19.60;40.30;;;;;;5067802;28;20484;-67
2021/03/10 12:07:29;;;;;;;4.70;3.93;;;19.70;40.40;;;;;;5069872;28;21261;-68
2021/03/10 12:09:55;;;;;;;3.70;3.40;;;19.70;41.10;;;;;;5069845;28;20553;-69
2021/03/10 12:12:21;;;;;;;3.60;3.30;;;19.60;40.20;;;;;;5070363;28;20984;-68
2021/03/10 12:14:47;;;;;;;3.20;3.00;;;19.70;40.20;;;;;;5068916;28;20480;-70
2021/03/10 12:17:13;;;;;;;4.37;3.87;;;19.60;40.30;;;;;;5071264;28;20480;-68
2021/03/10 12:19:39;;;;;;;3.27;2.97;;;19.60;40.30;;;;;;5070785;27;20482;-68
2021/03/10 12:22:07;;;;;;;2.60;2.50;;;19.60;40.30;;;;;;5085278;28;20537;-69
2021/03/10 12:24:33;;;;;;;3.17;2.97;;;19.60;40.30;;;;;;5064729;28;20488;-67
2021/03/10 12:26:59;;;;;;;3.20;3.10;;;19.60;40.10;;;;;;5066005;28;20547;-68
2021/03/10 12:29:26;;;;;;;3.70;3.40;;;19.70;40.20;;;;;;5069088;28;20554;-68
2021/03/10 12:31:52;;;;;;;3.80;3.60;;;19.60;40.10;;;;;;5067647;28;20484;-68
2021/03/10 12:34:18;;;;;;;4.30;3.57;;;19.60;40.00;;;;;;5076203;27;20847;-69
2021/03/10 12:36:44;;;;;;;3.20;2.90;;;19.60;40.00;;;;;;5087199;27;20488;-69
2021/03/10 12:39:12;;;;;;;3.40;3.10;;;19.60;39.90;;;;;;5070193;28;20500;-69
2021/03/10 12:41:38;;;;;;;3.67;3.37;;;19.60;39.90;;;;;;5072440;28;20484;-68
2021/03/10 12:44:05;;;;;;;3.00;2.80;;;19.60;39.90;;;;;;5091544;27;20475;-68
2021/03/10 12:46:31;;;;;;;2.93;2.73;;;19.70;40.00;;;;;;5085682;27;20482;-68
2021/03/10 12:48:58;;;;;;;3.00;2.70;;;19.60;39.90;;;;;;5080084;27;20489;-68